Kasson, Minnesota
Current Conditions -  °F | °C
As of 6:14 PM on Sunday 23 Nov 2014 (Local Time) from KTOB Reporting Station
Haze Haze  
Wind Chill: 32°   Ceiling: 2300
Heat Index: 39°   Visibility: 5mi
Dew Point: 39°   Wind: 13mph
Humidity: 100%   Direction: 320°NW
Pressure: 29.35"   Gusts: 18mph
Location:  44.03°N, 92.75°W
Report Text: KTOB 240014Z AUTO 32011G16KT 5SM BR OVC023 04/04 A2935 RMK AO2
Loading
Personal Weather Stations






























Interactive Weather Map New forecast layout! Learn more

10-Day Weather Forecast

Advertisements
Track Severe Weather on mobile